sensor_id;sensor_type;location;lat;lon;timestamp;pressure;altitude;pressure_sealevel;temperature;humidity
54854;BME280;40747;49.480;8.658;2023-02-12T00:01:00;102425.25;;;6.81;90.76
54854;BME280;40747;49.480;8.658;2023-02-12T00:03:25;102429.59;;;6.79;90.70
54854;BME280;40747;49.480;8.658;2023-02-12T00:05:51;102428.53;;;6.69;91.68
54854;BME280;40747;49.480;8.658;2023-02-12T00:08:16;102410.06;;;6.63;91.94
54854;BME280;40747;49.480;8.658;2023-02-12T00:10:42;102408.34;;;6.64;92.34
54854;BME280;40747;49.480;8.658;2023-02-12T00:13:09;102405.75;;;6.65;92.49
54854;BME280;40747;49.480;8.658;2023-02-12T00:15:38;102410.28;;;6.74;91.86
54854;BME280;40747;49.480;8.658;2023-02-12T00:18:03;102419.69;;;6.63;91.99
54854;BME280;40747;49.480;8.658;2023-02-12T00:20:28;102416.09;;;6.58;92.14
54854;BME280;40747;49.480;8.658;2023-02-12T00:22:53;102415.31;;;6.65;92.12
54854;BME280;40747;49.480;8.658;2023-02-12T00:25:19;102404.91;;;6.66;92.24
54854;BME280;40747;49.480;8.658;2023-02-12T00:27:44;102411.00;;;6.65;91.84
54854;BME280;40747;49.480;8.658;2023-02-12T00:30:11;102415.56;;;6.76;91.53
54854;BME280;40747;49.480;8.658;2023-02-12T00:32:36;102411.19;;;6.76;91.57
54854;BME280;40747;49.480;8.658;2023-02-12T00:35:02;102412.03;;;6.75;91.66
54854;BME280;40747;49.480;8.658;2023-02-12T00:37:27;102419.88;;;6.75;91.57
54854;BME280;40747;49.480;8.658;2023-02-12T00:39:53;102418.88;;;6.67;91.88
54854;BME280;40747;49.480;8.658;2023-02-12T00:42:18;102414.47;;;6.66;91.78
54854;BME280;40747;49.480;8.658;2023-02-12T00:44:43;102414.50;;;6.67;91.69
54854;BME280;40747;49.480;8.658;2023-02-12T00:57:01;102425.59;;;6.52;92.76
54854;BME280;40747;49.480;8.658;2023-02-12T00:59:27;102429.19;;;6.58;92.99
54854;BME280;40747;49.480;8.658;2023-02-12T01:01:54;102431.91;;;6.64;92.35
54854;BME280;40747;49.480;8.658;2023-02-12T01:04:19;102431.94;;;6.65;92.63
54854;BME280;40747;49.480;8.658;2023-02-12T01:06:45;102422.28;;;6.63;92.50
54854;BME280;40747;49.480;8.658;2023-02-12T01:09:11;102428.53;;;6.69;92.18
54854;BME280;40747;49.480;8.658;2023-02-12T01:11:36;102425.84;;;6.66;92.33
54854;BME280;40747;49.480;8.658;2023-02-12T01:14:02;102419.75;;;6.67;92.68
54854;BME280;40747;49.480;8.658;2023-02-12T01:16:28;102420.38;;;6.54;92.77
54854;BME280;40747;49.480;8.658;2023-02-12T01:18:56;102439.38;;;6.44;92.59
54854;BME280;40747;49.480;8.658;2023-02-12T01:21:27;102422.69;;;6.38;93.17
54854;BME280;40747;49.480;8.658;2023-02-12T01:23:53;102421.91;;;6.44;93.39
54854;BME280;40747;49.480;8.658;2023-02-12T01:26:20;102432.53;;;6.52;93.26
54854;BME280;40747;49.480;8.658;2023-02-12T01:28:55;102426.19;;;6.40;93.44
54854;BME280;40747;49.480;8.658;2023-02-12T01:31:23;102429.78;;;6.46;93.65
54854;BME280;40747;49.480;8.658;2023-02-12T01:33:55;102430.88;;;6.55;93.14
54854;BME280;40747;49.480;8.658;2023-02-12T01:36:21;102423.94;;;6.58;93.38
54854;BME280;40747;49.480;8.658;2023-02-12T01:38:47;102427.31;;;6.52;93.26
54854;BME280;40747;49.480;8.658;2023-02-12T01:41:15;102420.34;;;6.52;92.88
54854;BME280;40747;49.480;8.658;2023-02-12T01:43:41;102428.97;;;6.48;93.11
54854;BME280;40747;49.480;8.658;2023-02-12T01:46:09;102396.19;;;6.23;93.17
54854;BME280;40747;49.480;8.658;2023-02-12T01:48:43;102428.06;;;6.45;93.60
54854;BME280;40747;49.480;8.658;2023-02-12T01:51:12;102423.63;;;6.42;93.67
54854;BME280;40747;49.480;8.658;2023-02-12T01:53:42;102423.47;;;6.34;93.98
54854;BME280;40747;49.480;8.658;2023-02-12T01:56:09;102422.44;;;6.28;94.44
54854;BME280;40747;49.480;8.658;2023-02-12T01:58:38;102417.13;;;6.23;94.37
54854;BME280;40747;49.480;8.658;2023-02-12T02:01:07;102428.16;;;6.08;95.48
54854;BME280;40747;49.480;8.658;2023-02-12T02:03:36;102415.09;;;5.71;95.80
54854;BME280;40747;49.480;8.658;2023-02-12T02:06:11;102405.19;;;5.58;97.24
54854;BME280;40747;49.480;8.658;2023-02-12T02:08:39;102418.84;;;5.83;97.50
54854;BME280;40747;49.480;8.658;2023-02-12T02:11:05;102415.84;;;6.02;96.01
54854;BME280;40747;49.480;8.658;2023-02-12T02:13:51;102399.38;;;6.10;95.69
54854;BME280;40747;49.480;8.658;2023-02-12T02:16:36;102417.25;;;6.29;94.93
54854;BME280;40747;49.480;8.658;2023-02-12T02:21:45;102420.09;;;6.40;94.20
54854;BME280;40747;49.480;8.658;2023-02-12T02:24:46;102416.69;;;6.44;94.20
54854;BME280;40747;49.480;8.658;2023-02-12T02:27:19;102412.34;;;6.45;94.36
54854;BME280;40747;49.480;8.658;2023-02-12T02:32:56;102411.44;;;6.44;94.81
54854;BME280;40747;49.480;8.658;2023-02-12T02:35:36;102411.44;;;6.44;95.71
54854;BME280;40747;49.480;8.658;2023-02-12T02:43:35;102422.69;;;6.38;94.83
54854;BME280;40747;49.480;8.658;2023-02-12T02:46:12;102409.31;;;6.25;95.01
54854;BME280;40747;49.480;8.658;2023-02-12T02:48:45;102412.63;;;6.17;95.48
54854;BME280;40747;49.480;8.658;2023-02-12T02:51:19;102407.66;;;6.28;95.63
54854;BME280;40747;49.480;8.658;2023-02-12T02:53:57;102411.13;;;6.29;95.37
54854;BME280;40747;49.480;8.658;2023-02-12T02:56:25;102414.44;;;5.82;95.95
54854;BME280;40747;49.480;8.658;2023-02-12T02:58:55;102408.50;;;5.89;96.93
54854;BME280;40747;49.480;8.658;2023-02-12T03:01:38;102408.63;;;5.94;96.71
54854;BME280;40747;49.480;8.658;2023-02-12T03:04:07;102413.59;;;5.83;97.29
54854;BME280;40747;49.480;8.658;2023-02-12T03:06:49;102401.34;;;5.80;97.59
54854;BME280;40747;49.480;8.658;2023-02-12T03:09:22;102410.44;;;5.96;97.00
54854;BME280;40747;49.480;8.658;2023-02-12T03:11:52;102411.94;;;5.86;97.09
54854;BME280;40747;49.480;8.658;2023-02-12T03:14:24;102410.50;;;5.61;97.51
54854;BME280;40747;49.480;8.658;2023-02-12T03:19:30;102421.09;;;6.04;97.41
54854;BME280;40747;49.480;8.658;2023-02-12T03:22:08;102415.25;;;6.17;96.05
54854;BME280;40747;49.480;8.658;2023-02-12T03:24:40;102416.16;;;6.18;96.12
54854;BME280;40747;49.480;8.658;2023-02-12T03:29:43;102412.94;;;6.33;94.71
54854;BME280;40747;49.480;8.658;2023-02-12T03:32:17;102413.97;;;6.39;94.86
54854;BME280;40747;49.480;8.658;2023-02-12T03:34:54;102415.66;;;6.36;94.89
54854;BME280;40747;49.480;8.658;2023-02-12T03:37:29;102415.69;;;6.37;95.04
54854;BME280;40747;49.480;8.658;2023-02-12T03:48:09;102407.94;;;6.44;94.24
54854;BME280;40747;49.480;8.658;2023-02-12T03:50:59;102418.41;;;6.42;94.69
54854;BME280;40747;49.480;8.658;2023-02-12T03:53:29;102429.47;;;6.30;93.98
54854;BME280;40747;49.480;8.658;2023-02-12T03:56:06;102422.72;;;6.42;94.88
54854;BME280;40747;49.480;8.658;2023-02-12T03:58:36;102412.44;;;6.51;94.91
54854;BME280;40747;49.480;8.658;2023-02-12T04:01:03;102424.78;;;6.56;95.00
54854;BME280;40747;49.480;8.658;2023-02-12T04:03:30;102407.19;;;6.51;95.69
54854;BME280;40747;49.480;8.658;2023-02-12T04:05:56;102421.25;;;6.54;95.03
54854;BME280;40747;49.480;8.658;2023-02-12T04:08:23;102412.53;;;6.54;94.44
54854;BME280;40747;49.480;8.658;2023-02-12T04:17:02;102420.50;;;6.60;93.90
54854;BME280;40747;49.480;8.658;2023-02-12T04:19:47;102428.22;;;6.54;93.83
54854;BME280;40747;49.480;8.658;2023-02-12T04:22:41;102430.00;;;6.55;93.96
54854;BME280;40747;49.480;8.658;2023-02-12T04:31:07;102432.06;;;6.71;93.92
54854;BME280;40747;49.480;8.658;2023-02-12T04:33:45;102436.50;;;6.76;93.83
54854;BME280;40747;49.480;8.658;2023-02-12T04:36:19;102436.53;;;6.77;93.88
54854;BME280;40747;49.480;8.658;2023-02-12T04:38:51;102405.59;;;6.58;93.40
54854;BME280;40747;49.480;8.658;2023-02-12T04:41:18;102437.31;;;6.71;93.52
54854;BME280;40747;49.480;8.658;2023-02-12T04:43:44;102431.03;;;6.63;93.31
54854;BME280;40747;49.480;8.658;2023-02-12T04:46:09;102444.47;;;6.37;94.46
54854;BME280;40747;49.480;8.658;2023-02-12T04:48:54;102433.97;;;6.36;95.39
54854;BME280;40747;49.480;8.658;2023-02-12T04:51:20;102440.38;;;6.52;95.41
54854;BME280;40747;49.480;8.658;2023-02-12T04:53:46;102432.63;;;6.56;94.48
54854;BME280;40747;49.480;8.658;2023-02-12T04:56:12;102437.94;;;6.60;94.70
54854;BME280;40747;49.480;8.658;2023-02-12T04:58:38;102418.56;;;6.51;94.80
54854;BME280;40747;49.480;8.658;2023-02-12T05:01:04;102426.31;;;6.47;95.51
54854;BME280;40747;49.480;8.658;2023-02-12T05:03:29;102434.78;;;6.32;96.06
54854;BME280;40747;49.480;8.658;2023-02-12T05:05:55;102431.06;;;6.22;97.04
54854;BME280;40747;49.480;8.658;2023-02-12T05:08:20;102422.41;;;6.26;96.89
54854;BME280;40747;49.480;8.658;2023-02-12T05:10:45;102430.41;;;6.32;95.88
54854;BME280;40747;49.480;8.658;2023-02-12T05:13:10;102434.03;;;6.39;96.13
54854;BME280;40747;49.480;8.658;2023-02-12T05:15:38;102429.44;;;6.27;96.61
54854;BME280;40747;49.480;8.658;2023-02-12T05:18:03;102428.72;;;6.34;96.00
54854;BME280;40747;49.480;8.658;2023-02-12T05:20:28;102425.47;;;6.46;95.46
54854;BME280;40747;49.480;8.658;2023-02-12T05:22:54;102427.31;;;6.52;94.90
54854;BME280;40747;49.480;8.658;2023-02-12T05:25:19;102424.84;;;6.60;94.67
54854;BME280;40747;49.480;8.658;2023-02-12T05:27:44;102425.81;;;6.65;94.34
54854;BME280;40747;49.480;8.658;2023-02-12T05:30:10;102423.25;;;6.66;94.65
54854;BME280;40747;49.480;8.658;2023-02-12T05:32:35;102420.66;;;6.68;94.78
54854;BME280;40747;49.480;8.658;2023-02-12T05:35:01;102425.59;;;6.52;94.42
54854;BME280;40747;49.480;8.658;2023-02-12T05:37:26;102426.94;;;6.33;95.78
54854;BME280;40747;49.480;8.658;2023-02-12T05:39:51;102421.59;;;6.29;95.85
54854;BME280;40747;49.480;8.658;2023-02-12T05:42:17;102428.59;;;6.28;96.21
54854;BME280;40747;49.480;8.658;2023-02-12T05:44:43;102420.06;;;6.38;95.96
54854;BME280;40747;49.480;8.658;2023-02-12T05:47:08;102430.50;;;6.37;95.41
54854;BME280;40747;49.480;8.658;2023-02-12T05:49:34;102434.03;;;6.39;95.20
54854;BME280;40747;49.480;8.658;2023-02-12T05:51:59;102427.84;;;6.35;95.39
54854;BME280;40747;49.480;8.658;2023-02-12T05:54:24;102441.16;;;6.46;94.74
54854;BME280;40747;49.480;8.658;2023-02-12T05:56:50;102447.06;;;6.36;95.03
54854;BME280;40747;49.480;8.658;2023-02-12T05:59:20;102447.78;;;6.29;95.38
54854;BME280;40747;49.480;8.658;2023-02-12T06:01:48;102451.28;;;6.29;95.08
54854;BME280;40747;49.480;8.658;2023-02-12T06:04:16;102439.88;;;6.26;94.77
54854;BME280;40747;49.480;8.658;2023-02-12T06:06:42;102442.25;;;6.15;94.19
54854;BME280;40747;49.480;8.658;2023-02-12T06:09:10;102456.13;;;6.12;94.93
54854;BME280;40747;49.480;8.658;2023-02-12T06:11:35;102453.59;;;6.15;94.34
54854;BME280;40747;49.480;8.658;2023-02-12T06:14:03;102426.22;;;6.01;94.15
54854;BME280;40747;49.480;8.658;2023-02-12T06:16:28;102454.44;;;6.13;94.13
54854;BME280;40747;49.480;8.658;2023-02-12T06:18:55;102451.53;;;6.00;94.20
54854;BME280;40747;49.480;8.658;2023-02-12T06:21:22;102456.56;;;5.94;95.14
54854;BME280;40747;49.480;8.658;2023-02-12T06:23:49;102456.19;;;5.77;96.43
54854;BME280;40747;49.480;8.658;2023-02-12T06:26:15;102449.69;;;5.61;96.97
54854;BME280;40747;49.480;8.658;2023-02-12T06:28:40;102457.41;;;5.55;97.95
54854;BME280;40747;49.480;8.658;2023-02-12T06:31:25;102456.16;;;5.39;98.61
54854;BME280;40747;49.480;8.658;2023-02-12T06:33:52;102457.69;;;5.31;99.55
54854;BME280;40747;49.480;8.658;2023-02-12T06:36:18;102458.34;;;5.22;100.00
54854;BME280;40747;49.480;8.658;2023-02-12T06:38:44;102453.84;;;5.18;100.00
54854;BME280;40747;49.480;8.658;2023-02-12T06:41:10;102456.41;;;5.15;100.00
54854;BME280;40747;49.480;8.658;2023-02-12T06:43:35;102460.69;;;5.13;100.00
54854;BME280;40747;49.480;8.658;2023-02-12T06:46:02;102466.91;;;5.18;100.00
54854;BME280;40747;49.480;8.658;2023-02-12T06:48:28;102454.81;;;4.88;100.00
54854;BME280;40747;49.480;8.658;2023-02-12T06:50:53;102465.19;;;4.85;100.00
54854;BME280;40747;49.480;8.658;2023-02-12T06:53:19;102471.13;;;4.79;100.00
54854;BME280;40747;49.480;8.658;2023-02-12T06:55:44;102467.25;;;4.97;100.00
54854;BME280;40747;49.480;8.658;2023-02-12T06:58:09;102467.28;;;4.98;100.00
54854;BME280;40747;49.480;8.658;2023-02-12T07:00:35;102469.88;;;4.97;100.00
54854;BME280;40747;49.480;8.658;2023-02-12T07:03:00;102470.06;;;5.04;100.00
54854;BME280;40747;49.480;8.658;2023-02-12T07:05:25;102469.03;;;4.98;100.00
54854;BME280;40747;49.480;8.658;2023-02-12T07:07:51;102480.44;;;5.01;100.00
54854;BME280;40747;49.480;8.658;2023-02-12T07:10:17;102482.28;;;5.05;100.00
54854;BME280;40747;49.480;8.658;2023-02-12T07:12:42;102475.53;;;5.14;100.00
54854;BME280;40747;49.480;8.658;2023-02-12T07:15:08;102480.44;;;5.01;100.00
54854;BME280;40747;49.480;8.658;2023-02-12T07:17:34;102489.13;;;5.00;100.00
54854;BME280;40747;49.480;8.658;2023-02-12T07:19:59;102492.78;;;5.07;100.00
54854;BME280;40747;49.480;8.658;2023-02-12T07:22:24;102467.38;;;5.01;100.00
54854;BME280;40747;49.480;8.658;2023-02-12T07:24:50;102496.63;;;5.21;100.00
54854;BME280;40747;49.480;8.658;2023-02-12T07:27:16;102494.06;;;5.23;100.00
54854;BME280;40747;49.480;8.658;2023-02-12T07:29:41;102498.78;;;5.36;100.00
54854;BME280;40747;49.480;8.658;2023-02-12T07:32:06;102505.13;;;5.46;100.00
54854;BME280;40747;49.480;8.658;2023-02-12T07:34:31;102494.88;;;5.54;100.00
54854;BME280;40747;49.480;8.658;2023-02-12T07:36:57;102502.88;;;5.60;100.00
54854;BME280;40747;49.480;8.658;2023-02-12T07:39:22;102501.38;;;5.71;100.00
54854;BME280;40747;49.480;8.658;2023-02-12T07:41:47;102480.38;;;5.68;99.86
54854;BME280;40747;49.480;8.658;2023-02-12T07:44:13;102495.56;;;5.83;100.00
54854;BME280;40747;49.480;8.658;2023-02-12T07:49:06;102501.41;;;6.08;98.99
54854;BME280;40747;49.480;8.658;2023-02-12T07:51:35;102505.97;;;5.82;99.19
54854;BME280;40747;49.480;8.658;2023-02-12T07:54:01;102505.91;;;5.79;100.00
54854;BME280;40747;49.480;8.658;2023-02-12T07:56:29;102494.66;;;5.81;100.00
54854;BME280;40747;49.480;8.658;2023-02-12T07:59:04;102495.66;;;5.88;100.00
54854;BME280;40747;49.480;8.658;2023-02-12T08:01:35;102502.16;;;6.02;100.00
54854;BME280;40747;49.480;8.658;2023-02-12T08:04:07;102506.31;;;5.25;100.00
54854;BME280;40747;49.480;8.658;2023-02-12T08:06:35;102506.00;;;4.81;100.00
54854;BME280;40747;49.480;8.658;2023-02-12T08:09:04;102506.75;;;4.47;100.00
54854;BME280;40747;49.480;8.658;2023-02-12T08:11:31;102509.09;;;4.37;100.00
54854;BME280;40747;49.480;8.658;2023-02-12T08:13:57;102507.72;;;4.50;100.00
54854;BME280;40747;49.480;8.658;2023-02-12T08:16:25;102504.47;;;4.59;100.00
54854;BME280;40747;49.480;8.658;2023-02-12T08:18:51;102508.88;;;4.60;100.00
54854;BME280;40747;49.480;8.658;2023-02-12T08:21:22;102508.09;;;4.64;100.00
54854;BME280;40747;49.480;8.658;2023-02-12T08:23:48;102514.38;;;4.69;100.00
54854;BME280;40747;49.480;8.658;2023-02-12T08:26:20;102524.31;;;4.83;100.00
54854;BME280;40747;49.480;8.658;2023-02-12T08:28:51;102525.50;;;4.94;100.00
54854;BME280;40747;49.480;8.658;2023-02-12T08:31:26;102525.34;;;4.88;100.00
54854;BME280;40747;49.480;8.658;2023-02-12T08:33:53;102510.00;;;5.00;100.00
54854;BME280;40747;49.480;8.658;2023-02-12T08:36:21;102521.47;;;5.05;100.00
54854;BME280;40747;49.480;8.658;2023-02-12T08:38:47;102519.44;;;5.27;100.00
54854;BME280;40747;49.480;8.658;2023-02-12T08:41:18;102515.41;;;5.06;100.00
54854;BME280;40747;49.480;8.658;2023-02-12T08:43:44;102525.19;;;5.15;100.00
54854;BME280;40747;49.480;8.658;2023-02-12T08:48:41;102521.22;;;5.28;100.00
54854;BME280;40747;49.480;8.658;2023-02-12T08:51:12;102526.31;;;5.23;100.00
54854;BME280;40747;49.480;8.658;2023-02-12T08:53:40;102531.56;;;5.25;100.00
54854;BME280;40747;49.480;8.658;2023-02-12T08:56:06;102524.84;;;5.33;100.00
54854;BME280;40747;49.480;8.658;2023-02-12T08:58:32;102528.78;;;5.52;100.00
54854;BME280;40747;49.480;8.658;2023-02-12T09:00:58;102524.34;;;5.48;100.00
54854;BME280;40747;49.480;8.658;2023-02-12T09:03:23;102529.72;;;5.54;100.00
54854;BME280;40747;49.480;8.658;2023-02-12T09:05:49;102537.63;;;5.57;100.00
54854;BME280;40747;49.480;8.658;2023-02-12T09:08:14;102535.00;;;5.57;100.00
54854;BME280;40747;49.480;8.658;2023-02-12T09:10:41;102517.66;;;5.60;100.00
54854;BME280;40747;49.480;8.658;2023-02-12T09:13:09;102528.59;;;5.78;100.00
54854;BME280;40747;49.480;8.658;2023-02-12T09:15:42;102537.34;;;5.80;100.00
54854;BME280;40747;49.480;8.658;2023-02-12T09:18:08;102525.63;;;5.64;100.00
54854;BME280;40747;49.480;8.658;2023-02-12T09:20:36;102529.13;;;5.66;100.00
54854;BME280;40747;49.480;8.658;2023-02-12T09:23:03;102531.66;;;5.62;100.00
54854;BME280;40747;49.480;8.658;2023-02-12T09:25:28;102527.53;;;5.71;100.00
54854;BME280;40747;49.480;8.658;2023-02-12T09:27:54;102533.13;;;5.87;100.00
54854;BME280;40747;49.480;8.658;2023-02-12T09:30:20;102533.06;;;5.84;100.00
54854;BME280;40747;49.480;8.658;2023-02-12T09:32:46;102535.81;;;5.88;100.00
54854;BME280;40747;49.480;8.658;2023-02-12T09:35:11;102528.81;;;5.87;100.00
54854;BME280;40747;49.480;8.658;2023-02-12T09:37:38;102533.22;;;5.90;100.00
54854;BME280;40747;49.480;8.658;2023-02-12T09:40:17;102532.88;;;6.11;100.00
54854;BME280;40747;49.480;8.658;2023-02-12T09:42:59;102533.53;;;6.40;100.00
54854;BME280;40747;49.480;8.658;2023-02-12T09:45:31;102537.34;;;6.55;100.00
54854;BME280;40747;49.480;8.658;2023-02-12T09:50:53;102541.75;;;6.56;100.00
54854;BME280;40747;49.480;8.658;2023-02-12T09:53:22;102541.81;;;6.59;100.00
54854;BME280;40747;49.480;8.658;2023-02-12T09:55:49;102546.91;;;6.53;100.00
54854;BME280;40747;49.480;8.658;2023-02-12T09:58:21;102539.84;;;6.49;100.00
54854;BME280;40747;49.480;8.658;2023-02-12T10:00:48;102546.75;;;6.47;100.00
54854;BME280;40747;49.480;8.658;2023-02-12T10:03:15;102544.22;;;6.50;100.00
54854;BME280;40747;49.480;8.658;2023-02-12T10:05:49;102540.22;;;6.67;100.00
54854;BME280;40747;49.480;8.658;2023-02-12T10:09:14;102542.09;;;6.73;100.00
54854;BME280;40747;49.480;8.658;2023-02-12T10:11:35;102549.03;;;6.71;100.00
54854;BME280;40747;49.480;8.658;2023-02-12T10:14:13;102542.50;;;6.93;100.00
54854;BME280;40747;49.480;8.658;2023-02-12T10:23:02;102533.78;;;7.40;100.00
54854;BME280;40747;49.480;8.658;2023-02-12T10:25:53;102532.69;;;7.78;100.00
54854;BME280;40747;49.480;8.658;2023-02-12T10:28:38;102525.09;;;7.96;99.12
54854;BME280;40747;49.480;8.658;2023-02-12T10:31:15;102526.41;;;8.26;97.76
54854;BME280;40747;49.480;8.658;2023-02-12T10:33:46;102519.63;;;8.44;96.51
54854;BME280;40747;49.480;8.658;2023-02-12T10:38:50;102512.72;;;8.47;94.65
54854;BME280;40747;49.480;8.658;2023-02-12T10:41:17;102518.16;;;8.63;94.98
54854;BME280;40747;49.480;8.658;2023-02-12T10:43:45;102503.25;;;8.62;95.26
54854;BME280;40747;49.480;8.658;2023-02-12T10:46:15;102512.31;;;8.84;94.83
54854;BME280;40747;49.480;8.658;2023-02-12T10:48:45;102499.41;;;9.07;93.58
54854;BME280;40747;49.480;8.658;2023-02-12T10:56:56;102506.03;;;9.59;90.39
54854;BME280;40747;49.480;8.658;2023-02-12T10:59:22;102504.31;;;9.59;89.28
54854;BME280;40747;49.480;8.658;2023-02-12T11:01:48;102497.94;;;9.35;90.98
54854;BME280;40747;49.480;8.658;2023-02-12T11:06:59;102502.53;;;9.57;86.53
54854;BME280;40747;49.480;8.658;2023-02-12T11:09:36;102492.00;;;9.58;85.62
54854;BME280;40747;49.480;8.658;2023-02-12T11:14:57;102477.88;;;9.44;86.72
54854;BME280;40747;49.480;8.658;2023-02-12T11:20:07;102494.31;;;9.26;88.44
54854;BME280;40747;49.480;8.658;2023-02-12T11:23:02;102491.09;;;9.56;87.91
54854;BME280;40747;49.480;8.658;2023-02-12T11:25:36;102489.50;;;9.72;86.67
54854;BME280;40747;49.480;8.658;2023-02-12T11:28:11;102485.09;;;9.73;85.25
54854;BME280;40747;49.480;8.658;2023-02-12T11:31:02;102474.59;;;9.76;83.75
54854;BME280;40747;49.480;8.658;2023-02-12T11:33:36;102471.16;;;9.86;83.59
54854;BME280;40747;49.480;8.658;2023-02-12T11:36:22;102473.84;;;9.94;83.38
54854;BME280;40747;49.480;8.658;2023-02-12T11:38:54;102467.72;;;9.99;83.51
54854;BME280;40747;49.480;8.658;2023-02-12T11:41:40;102479.97;;;9.94;82.96
54854;BME280;40747;49.480;8.658;2023-02-12T11:44:11;102466.09;;;10.15;82.60
54854;BME280;40747;49.480;8.658;2023-02-12T11:46:38;102460.84;;;10.26;81.73
54854;BME280;40747;49.480;8.658;2023-02-12T11:49:05;102456.50;;;10.33;81.34
54854;BME280;40747;49.480;8.658;2023-02-12T11:51:34;102457.47;;;10.40;81.91
54854;BME280;40747;49.480;8.658;2023-02-12T11:54:03;102446.94;;;10.52;81.85
54854;BME280;40747;49.480;8.658;2023-02-12T11:56:45;102445.19;;;10.48;80.48
54854;BME280;40747;49.480;8.658;2023-02-12T11:59:36;102457.47;;;10.43;80.72
54854;BME280;40747;49.480;8.658;2023-02-12T12:02:25;102446.03;;;10.47;80.48
54854;BME280;40747;49.480;8.658;2023-02-12T12:05:00;102448.75;;;10.56;81.36
54854;BME280;40747;49.480;8.658;2023-02-12T12:07:31;102445.25;;;10.70;79.44
54854;BME280;40747;49.480;8.658;2023-02-12T12:10:03;102442.59;;;10.62;79.08
54854;BME280;40747;49.480;8.658;2023-02-12T12:12:55;102445.22;;;10.60;79.70
54854;BME280;40747;49.480;8.658;2023-02-12T12:15:27;102441.78;;;10.77;79.10
54854;BME280;40747;49.480;8.658;2023-02-12T12:18:30;102428.56;;;10.74;79.22
54854;BME280;40747;49.480;8.658;2023-02-12T12:21:39;102426.84;;;10.90;78.60
54854;BME280;40747;49.480;8.658;2023-02-12T12:24:13;102431.25;;;10.86;78.42
54854;BME280;40747;49.480;8.658;2023-02-12T12:26:46;102407.53;;;11.03;78.10
54854;BME280;40747;49.480;8.658;2023-02-12T12:29:25;102420.72;;;11.19;78.40
54854;BME280;40747;49.480;8.658;2023-02-12T12:31:59;102425.13;;;11.27;77.65
54854;BME280;40747;49.480;8.658;2023-02-12T12:34:26;102419.84;;;11.29;77.20
54854;BME280;40747;49.480;8.658;2023-02-12T12:37:02;102408.31;;;10.54;78.40
54854;BME280;40747;49.480;8.658;2023-02-12T12:42:24;102419.31;;;9.74;83.82
54854;BME280;40747;49.480;8.658;2023-02-12T12:50:41;102399.16;;;9.73;84.13
54854;BME280;40747;49.480;8.658;2023-02-12T12:56:13;102385.13;;;9.82;82.54
54854;BME280;40747;49.480;8.658;2023-02-12T13:07:18;102376.19;;;9.55;83.42
54854;BME280;40747;49.480;8.658;2023-02-12T13:10:15;102378.00;;;9.61;84.13
54854;BME280;40747;49.480;8.658;2023-02-12T13:15:42;102367.50;;;9.61;83.65
54854;BME280;40747;49.480;8.658;2023-02-12T13:23:43;102356.13;;;9.70;84.01
54854;BME280;40747;49.480;8.658;2023-02-12T13:26:20;102356.88;;;9.47;83.38
54854;BME280;40747;49.480;8.658;2023-02-12T13:28:58;102349.97;;;9.64;84.04
54854;BME280;40747;49.480;8.658;2023-02-12T13:31:27;102348.28;;;9.76;83.24
54854;BME280;40747;49.480;8.658;2023-02-12T13:34:04;102359.81;;;10.07;81.44
54854;BME280;40747;49.480;8.658;2023-02-12T13:36:34;102357.19;;;10.09;81.37
54854;BME280;40747;49.480;8.658;2023-02-12T13:39:12;102351.00;;;9.91;82.62
54854;BME280;40747;49.480;8.658;2023-02-12T13:41:46;102359.69;;;9.79;83.18
54854;BME280;40747;49.480;8.658;2023-02-12T13:44:19;102350.16;;;10.02;82.54
54854;BME280;40747;49.480;8.658;2023-02-12T13:55:09;102334.53;;;10.53;80.23
54854;BME280;40747;49.480;8.658;2023-02-12T13:57:36;102334.47;;;10.36;80.04
54854;BME280;40747;49.480;8.658;2023-02-12T14:00:02;102329.25;;;10.37;80.20
54854;BME280;40747;49.480;8.658;2023-02-12T14:04:59;102329.16;;;10.26;81.50
54854;BME280;40747;49.480;8.658;2023-02-12T14:07:41;102332.66;;;10.21;82.10
54854;BME280;40747;49.480;8.658;2023-02-12T14:10:07;102319.50;;;10.31;82.25
54854;BME280;40747;49.480;8.658;2023-02-12T14:12:43;102319.53;;;10.28;82.22
54854;BME280;40747;49.480;8.658;2023-02-12T14:15:27;102325.66;;;10.26;81.74
54854;BME280;40747;49.480;8.658;2023-02-12T14:18:00;102316.00;;;10.28;81.36
54854;BME280;40747;49.480;8.658;2023-02-12T14:23:18;102316.94;;;10.41;81.23
54854;BME280;40747;49.480;8.658;2023-02-12T14:25:48;102313.44;;;10.45;81.37
54854;BME280;40747;49.480;8.658;2023-02-12T14:33:42;102319.59;;;10.42;83.92
54854;BME280;40747;49.480;8.658;2023-02-12T14:36:18;102318.66;;;10.29;85.55
54854;BME280;40747;49.480;8.658;2023-02-12T14:41:28;102307.19;;;10.15;85.57
54854;BME280;40747;49.480;8.658;2023-02-12T14:46:56;102309.81;;;10.15;86.14
54854;BME280;40747;49.480;8.658;2023-02-12T14:49:27;102310.63;;;9.97;86.98
54854;BME280;40747;49.480;8.658;2023-02-12T14:54:49;102304.47;;;9.89;87.06
54854;BME280;40747;49.480;8.658;2023-02-12T14:57:35;102306.25;;;10.00;86.91
54854;BME280;40747;49.480;8.658;2023-02-12T15:00:24;102298.38;;;10.08;86.48
54854;BME280;40747;49.480;8.658;2023-02-12T15:05:48;102296.66;;;10.24;85.77
54854;BME280;40747;49.480;8.658;2023-02-12T15:08:32;102287.84;;;10.07;86.68
54854;BME280;40747;49.480;8.658;2023-02-12T15:11:08;102294.88;;;10.11;86.73
54854;BME280;40747;49.480;8.658;2023-02-12T15:14:21;102294.94;;;10.23;86.33
54854;BME280;40747;49.480;8.658;2023-02-12T15:16:48;102303.66;;;10.17;86.05
54854;BME280;40747;49.480;8.658;2023-02-12T15:21:53;102292.97;;;9.71;88.33
54854;BME280;40747;49.480;8.658;2023-02-12T15:24:26;102301.00;;;9.99;87.70
54854;BME280;40747;49.480;8.658;2023-02-12T15:26:53;102294.84;;;9.95;87.93
54854;BME280;40747;49.480;8.658;2023-02-12T15:29:26;102290.44;;;9.96;88.20
54854;BME280;40747;49.480;8.658;2023-02-12T15:31:57;102287.72;;;9.74;89.18